PABE/BET METAR and TAF weather

Enter ICAO airport designator
Station Type Date Time Source
PABE METAR 2021/07/24 18:53 UTC NOAA

PABE 241853Z 07004KT 10SM OVC020 11/07 A3013 RMK AO2 RAB06E16 SLP202 P0000 T01060067


Station Type Date Time Source
PABE Decoded METAR 2021/07/24 18:53 UTC NOAA

BETHEL AIRPORT, AK, United States (PABE) 60-47N 161-50W 46M
Jul 24, 2021 - 02:53 PM EDT / 2021.07.24 1853 UTC
Wind: from the ENE (070 degrees) at 5 MPH (4 KT):0
Visibility: 10 mile(s):0
Sky conditions: overcast
Precipitation last hour: A trace
Temperature: 51.1 F (10.6 C)
Dew Point: 44.1 F (6.7 C)
Relative Humidity: 76%
Pressure (altimeter): 30.13 in. Hg (1020 hPa)
ob: PABE 241853Z 07004KT 10SM OVC020 11/07 A3013 RMK AO2 RAB06E16 SLP202 P0000 T01060067
cycle: 19

Station Type Date Time Source
PABE TAF 2021/07/24 18:33 UTC NOAA

TAF PABE 241731Z 2418/2518 VRB06KT P6SM OVC025
FM250000 30006KT P6SM SCT025 BKN035
FM251600 19006KT P6SM OVC025

Example: see airport list